Time;durP1;ratioP1;P1;durP2;ratioP2;P2;SDS_P1;SDS_P2;PMS_P1;PMS_P2;Temp;Humidity;BMP_temperature;BMP_pressure;BME280_temperature;BME280_humidity;BME280_pressure;Samples;Min_cycle;Max_cycle;Signal;HPM_P1;HPM_P2
2024/02/23 00:00:20;;;;;;;7.75;1.45;;;7.00;99.90;;;6.23;100.00;99259.53;4167617;28;20017;-77
2024/02/23 00:02:21;;;;;;;5.25;1.15;;;7.00;99.90;;;6.36;100.00;99268.50;4184217;28;20024;-77
2024/02/23 00:04:21;;;;;;;10.60;1.88;;;7.00;99.90;;;6.37;100.00;99290.28;4167516;28;20033;-77
2024/02/23 00:06:27;;;;;;;7.40;1.45;;;7.10;99.90;;;6.32;100.00;99284.75;4167300;28;20025;-77
2024/02/23 00:08:28;;;;;;;12.35;2.13;;;7.00;99.90;;;6.23;100.00;99265.59;4150997;28;20081;-77
2024/02/23 00:10:28;;;;;;;9.70;1.45;;;7.00;99.90;;;6.25;100.00;99284.56;4151194;28;20022;-77
2024/02/23 00:12:29;;;;;;;9.98;1.77;;;7.00;99.90;;;6.17;100.00;99289.00;4152535;28;20026;-77
2024/02/23 00:14:31;;;;;;;7.80;1.48;;;6.90;99.90;;;6.02;100.00;99278.34;4150886;28;20018;-77
2024/02/23 00:16:41;;;;;;;7.85;1.05;;;6.80;99.90;;;6.07;100.00;99268.19;4150897;28;20060;-77
2024/02/23 00:18:41;;;;;;;7.60;1.35;;;6.80;99.90;;;5.95;100.00;99278.19;4169180;28;20045;-77
2024/02/23 00:20:42;;;;;;;8.35;1.98;;;6.70;99.90;;;5.83;100.00;99268.16;4170687;28;20064;-77
2024/02/23 00:22:43;;;;;;;12.45;2.90;;;6.60;99.90;;;5.72;100.00;99263.22;4159085;28;20517;-77
2024/02/23 00:24:44;;;;;;;8.40;1.48;;;6.60;99.90;;;5.69;100.00;99269.63;4157785;28;20033;-77
2024/02/23 00:26:46;;;;;;;5.80;1.20;;;6.50;99.90;;;5.58;100.00;99269.91;4147975;28;20512;-77
2024/02/23 00:28:46;;;;;;;7.63;1.60;;;6.40;99.90;;;5.48;100.00;99267.44;4164947;28;20037;-77
2024/02/23 00:30:47;;;;;;;13.10;1.85;;;6.30;99.90;;;5.48;100.00;99275.28;4170846;28;20026;-76
2024/02/23 00:32:48;;;;;;;9.38;2.58;;;6.30;99.90;;;5.42;100.00;99273.31;4187006;28;20029;-77
2024/02/23 00:34:49;;;;;;;7.38;1.40;;;6.30;99.90;;;5.42;100.00;99281.16;4171788;28;20091;-76
2024/02/23 00:36:50;;;;;;;8.10;1.73;;;6.20;99.90;;;5.36;100.00;99275.72;4162907;28;20030;-77
2024/02/23 00:38:51;;;;;;;10.75;2.28;;;6.20;99.90;;;5.40;100.00;99282.28;4155568;28;20535;-76
2024/02/23 00:40:51;;;;;;;10.60;1.33;;;6.10;99.90;;;5.30;100.00;99285.03;4169182;28;20032;-77
2024/02/23 00:42:52;;;;;;;9.98;1.75;;;6.10;99.90;;;5.26;100.00;99281.09;4154023;28;20029;-77
2024/02/23 00:44:53;;;;;;;3.53;1.00;;;6.10;99.90;;;5.26;100.00;99286.31;4156483;28;20030;-77
2024/02/23 00:46:54;;;;;;;5.47;1.00;;;6.00;99.90;;;5.23;100.00;99275.34;4169546;28;20029;-77
2024/02/23 00:48:55;;;;;;;7.82;1.60;;;6.00;99.90;;;5.29;100.00;99291.22;4168493;28;20402;-77
2024/02/23 00:50:56;;;;;;;8.80;1.92;;;6.00;99.90;;;5.29;100.00;99275.53;4153924;28;20022;-77
2024/02/23 00:52:57;;;;;;;8.38;1.95;;;6.00;99.90;;;5.28;100.00;99280.94;4170273;28;20032;-77
2024/02/23 00:54:58;;;;;;;8.65;1.23;;;6.00;99.90;;;5.28;100.00;99273.09;4157248;28;20024;-77
2024/02/23 00:56:58;;;;;;;5.28;1.63;;;6.00;99.90;;;5.24;100.00;99275.19;4170162;28;20030;-77
2024/02/23 00:58:59;;;;;;;12.27;1.90;;;6.00;99.90;;;5.24;100.00;99284.84;4171355;28;20022;-77
2024/02/23 01:01:00;;;;;;;10.40;1.48;;;6.00;99.90;;;5.20;100.00;99279.09;4171741;28;20033;-77
2024/02/23 01:03:01;;;;;;;12.23;2.42;;;6.00;99.90;;;5.21;100.00;99277.31;4170233;28;20028;-77
2024/02/23 01:05:02;;;;;;;8.52;1.60;;;5.90;99.90;;;5.22;100.00;99264.09;4170809;28;20028;-76
2024/02/23 01:07:03;;;;;;;8.75;1.50;;;6.00;99.90;;;5.20;100.00;99267.81;4155051;28;20061;-77
2024/02/23 01:09:04;;;;;;;12.23;2.38;;;5.90;99.90;;;5.20;100.00;99263.41;4154936;28;20113;-77
2024/02/23 01:11:05;;;;;;;5.95;1.13;;;5.90;99.90;;;5.23;100.00;99259.66;4154839;28;20030;-76
2024/02/23 01:13:06;;;;;;;8.90;1.38;;;5.90;99.90;;;5.26;100.00;99246.28;4154647;28;20080;-76
2024/02/23 01:15:07;;;;;;;11.07;1.27;;;5.90;99.90;;;5.23;100.00;99246.59;4155129;28;20068;-76
2024/02/23 01:17:08;;;;;;;7.78;2.17;;;6.00;99.90;;;5.25;100.00;99240.25;4153829;28;20096;-77
2024/02/23 01:19:09;;;;;;;7.43;1.70;;;6.00;99.90;;;5.24;100.00;99233.38;4170159;28;20053;-77
2024/02/23 01:21:10;;;;;;;8.65;1.85;;;6.00;99.90;;;5.25;100.00;99235.03;4154778;28;20033;-77
2024/02/23 01:23:10;;;;;;;16.08;2.75;;;6.00;99.90;;;5.25;100.00;99224.56;4158369;28;20040;-77
2024/02/23 01:25:11;;;;;;;12.98;4.45;;;6.10;99.90;;;5.29;100.00;99212.78;4169873;28;20036;-77
2024/02/23 01:27:12;;;;;;;14.20;5.13;;;6.10;99.90;;;5.32;100.00;99217.72;4159594;28;20057;-76
2024/02/23 01:29:13;;;;;;;15.30;4.97;;;6.10;99.90;;;5.29;100.00;99222.44;4167279;28;20037;-77
2024/02/23 01:31:14;;;;;;;9.23;3.00;;;6.10;99.90;;;5.31;100.00;99221.31;4170073;28;20021;-77
2024/02/23 01:33:15;;;;;;;11.80;1.85;;;6.10;99.90;;;5.31;100.00;99213.47;4169822;28;20037;-76
2024/02/23 01:35:16;;;;;;;14.57;2.10;;;6.20;99.90;;;5.40;100.00;99224.78;4186228;28;20028;-77
2024/02/23 01:37:17;;;;;;;7.03;1.63;;;6.20;99.90;;;5.57;100.00;99219.41;4169582;28;20038;-77
2024/02/23 01:39:17;;;;;;;7.18;1.50;;;6.40;99.90;;;5.71;100.00;99217.13;4166653;28;20029;-77
2024/02/23 01:41:18;;;;;;;6.78;1.40;;;6.50;99.90;;;5.85;100.00;99203.41;4172329;28;20151;-77
2024/02/23 01:43:19;;;;;;;13.90;2.05;;;6.50;99.90;;;5.84;100.00;99193.91;4154476;28;20029;-77
2024/02/23 01:45:20;;;;;;;11.82;2.20;;;6.60;99.90;;;5.95;100.00;99188.38;4157470;28;20071;-77
2024/02/23 01:47:21;;;;;;;12.98;2.05;;;6.60;99.90;;;5.90;100.00;99175.78;4169492;28;20042;-77
2024/02/23 01:49:22;;;;;;;11.88;2.10;;;6.60;99.90;;;5.90;100.00;99172.34;4163165;28;20060;-77
2024/02/23 01:51:24;;;;;;;13.90;2.05;;;6.60;99.90;;;5.91;100.00;99181.84;4176368;28;20034;-77
2024/02/23 01:53:27;;;;;;;9.20;2.50;;;6.70;99.90;;;5.89;100.00;99178.56;4153030;28;20026;-77
2024/02/23 01:55:28;;;;;;;11.80;1.85;;;6.70;99.90;;;5.93;100.00;99172.03;4158430;28;20018;-77
2024/02/23 01:57:29;;;;;;;10.60;2.00;;;6.70;99.90;;;6.02;100.00;99178.88;4169389;28;20029;-77
2024/02/23 01:59:30;;;;;;;12.05;2.53;;;6.80;99.90;;;6.04;100.00;99188.22;4185676;28;20025;-77
2024/02/23 02:01:31;;;;;;;15.35;2.53;;;6.80;99.90;;;6.03;100.00;99177.91;4170423;28;20105;-77
2024/02/23 02:03:33;;;;;;;9.07;2.17;;;6.80;99.90;;;6.06;100.00;99174.97;4169487;28;20160;-76
2024/02/23 02:05:37;;;;;;;15.55;3.00;;;6.80;99.90;;;6.03;100.00;99175.31;4170439;28;20028;-76
2024/02/23 02:07:39;;;;;;;14.27;2.75;;;6.80;99.90;;;5.93;100.00;99172.84;4159333;28;20460;-77
2024/02/23 02:09:40;;;;;;;9.52;1.75;;;6.70;99.90;;;6.05;100.00;99175.94;4169231;28;20038;-77
2024/02/23 02:11:48;;;;;;;20.83;2.85;;;6.80;99.90;;;5.96;100.00;99174.31;4153916;28;20030;-76
2024/02/23 02:13:49;;;;;;;12.43;2.15;;;6.80;99.90;;;5.91;100.00;99166.16;4136228;28;20030;-76
2024/02/23 02:15:50;;;;;;;10.93;2.15;;;6.70;99.90;;;5.84;100.00;99155.50;4177256;28;20028;-77
2024/02/23 02:17:51;;;;;;;9.15;1.98;;;6.70;99.90;;;6.04;100.00;99166.44;4156086;28;20033;-77
2024/02/23 02:19:53;;;;;;;15.00;1.92;;;6.80;99.90;;;6.10;100.00;99176.25;4154075;28;20481;-77
2024/02/23 02:21:54;;;;;;;12.65;2.67;;;6.80;99.90;;;6.18;100.00;99172.81;4152808;28;20021;-77
2024/02/23 02:23:56;;;;;;;11.73;3.28;;;6.90;99.90;;;6.37;100.00;99180.28;4153771;28;20033;-77
2024/02/23 02:25:58;;;;;;;12.50;2.65;;;7.00;99.90;;;6.52;100.00;99181.25;4149251;28;20032;-77
2024/02/23 02:27:59;;;;;;;10.45;2.75;;;7.10;99.90;;;6.58;100.00;99157.81;4152585;28;20513;-77
2024/02/23 02:30:00;;;;;;;6.65;1.40;;;7.30;99.90;;;6.56;100.00;99136.22;4153688;28;20036;-77
2024/02/23 02:32:01;;;;;;;9.45;1.95;;;7.30;99.90;;;6.55;100.00;99142.44;4152573;28;20474;-77
2024/02/23 02:34:01;;;;;;;11.45;2.15;;;7.30;99.90;;;6.44;100.00;99136.75;4152462;28;20026;-77
2024/02/23 02:36:03;;;;;;;10.55;2.05;;;7.20;99.90;;;6.33;100.00;99132.69;4182084;28;20030;-77
2024/02/23 02:38:04;;;;;;;8.00;1.38;;;7.20;99.90;;;6.27;100.00;99136.00;4153659;28;20038;-77
2024/02/23 02:40:06;;;;;;;7.55;1.42;;;7.10;99.90;;;6.21;100.00;99136.66;4153535;28;20516;-77
2024/02/23 02:42:07;;;;;;;5.63;1.10;;;7.00;99.90;;;6.12;100.00;99132.44;4153303;28;20022;-77
2024/02/23 02:44:09;;;;;;;10.10;1.30;;;6.90;99.90;;;6.07;100.00;99127.69;4152845;28;20057;-77
2024/02/23 02:46:10;;;;;;;7.72;1.45;;;6.90;99.90;;;5.98;100.00;99120.81;4159539;28;20033;-77
2024/02/23 02:48:11;;;;;;;8.15;1.20;;;6.80;99.90;;;5.92;100.00;99131.94;4152114;28;20096;-77
2024/02/23 02:50:12;;;;;;;9.40;1.08;;;6.70;99.90;;;5.88;100.00;99142.94;4168552;28;20064;-77
2024/02/23 02:52:13;;;;;;;5.32;0.90;;;6.70;99.90;;;5.79;100.00;99139.47;4155340;28;20033;-78
2024/02/23 02:54:14;;;;;;;4.70;1.55;;;6.60;99.90;;;5.76;100.00;99146.81;4178112;28;20029;-77
2024/02/23 02:56:15;;;;;;;4.55;0.85;;;6.60;99.90;;;5.68;100.00;99138.97;4168281;28;20048;-77
2024/02/23 02:58:15;;;;;;;6.15;1.40;;;6.50;99.90;;;5.62;100.00;99142.22;4153293;28;20022;-77
2024/02/23 03:00:16;;;;;;;9.68;1.10;;;6.40;99.90;;;5.54;100.00;99133.41;4151936;28;20022;-77
2024/02/23 03:02:17;;;;;;;5.55;0.82;;;6.30;99.90;;;5.43;100.00;99141.59;4168201;28;20060;-77
2024/02/23 03:04:18;;;;;;;5.95;2.00;;;6.20;99.90;;;5.38;100.00;99135.19;4168337;28;20029;-77
2024/02/23 03:06:19;;;;;;;10.45;1.55;;;6.20;99.90;;;5.36;100.00;99135.38;4163071;28;20102;-77
2024/02/23 03:08:20;;;;;;;8.18;1.50;;;6.10;99.90;;;5.27;100.00;99141.56;4154007;28;20029;-76
2024/02/23 03:10:21;;;;;;;9.10;1.00;;;6.10;99.90;;;5.21;100.00;99126.53;4153207;28;20034;-77
2024/02/23 03:12:22;;;;;;;5.90;1.50;;;6.00;99.90;;;5.20;100.00;99134.50;4151747;28;20026;-77
2024/02/23 03:14:23;;;;;;;8.52;1.60;;;6.00;99.90;;;5.16;100.00;99125.38;4152813;28;20548;-77
2024/02/23 03:16:25;;;;;;;7.95;1.30;;;6.00;99.90;;;5.13;100.00;99131.75;4163183;28;20021;-77
2024/02/23 03:18:27;;;;;;;9.55;0.90;;;5.90;99.90;;;5.06;100.00;99122.91;4168262;28;20047;-77
2024/02/23 03:20:28;;;;;;;8.23;0.82;;;5.90;99.90;;;5.01;100.00;99125.19;4184542;28;20389;-77
2024/02/23 03:22:29;;;;;;;7.97;1.73;;;5.80;99.90;;;4.99;100.00;99132.34;4167926;28;20044;-77
2024/02/23 03:24:30;;;;;;;5.50;1.05;;;5.80;99.90;;;4.94;100.00;99119.78;4169028;28;20025;-77
2024/02/23 03:26:31;;;;;;;16.13;1.58;;;5.70;99.90;;;4.93;100.00;99128.59;4167865;28;20029;-77
2024/02/23 03:28:32;;;;;;;8.70;1.60;;;5.70;99.90;;;4.94;100.00;99124.19;4184202;28;20036;-77
2024/02/23 03:30:32;;;;;;;10.80;1.30;;;5.70;99.90;;;4.92;100.00;99126.16;4169061;28;20079;-77
2024/02/23 03:32:38;;;;;;;11.20;2.55;;;5.70;99.90;;;4.84;100.00;99110.44;4168933;28;20030;-77
2024/02/23 03:34:39;;;;;;;3.92;1.15;;;5.70;99.90;;;4.91;100.00;99119.28;4167998;28;20040;-77
2024/02/23 03:36:40;;;;;;;8.43;1.00;;;5.70;99.90;;;4.87;100.00;99117.94;4161429;28;20026;-77
2024/02/23 03:38:41;;;;;;;6.03;1.10;;;5.70;99.90;;;4.86;100.00;99129.38;4157860;28;20504;-77
2024/02/23 03:40:42;;;;;;;7.65;1.13;;;5.70;99.90;;;4.85;100.00;99119.91;4152554;28;20025;-77
2024/02/23 03:42:43;;;;;;;5.93;1.05;;;5.60;99.90;;;4.80;100.00;99112.56;4152716;28;20489;-77
2024/02/23 03:44:43;;;;;;;6.07;0.90;;;5.60;99.90;;;4.76;100.00;99110.41;4151216;28;20061;-77
2024/02/23 03:46:44;;;;;;;8.23;2.13;;;5.60;99.90;;;4.72;100.00;99109.13;4158417;28;20049;-77
2024/02/23 03:48:45;;;;;;;6.80;1.05;;;5.60;99.90;;;4.74;100.00;99112.38;4152382;28;20042;-77
2024/02/23 03:50:46;;;;;;;5.63;1.10;;;5.60;99.90;;;4.71;100.00;99108.28;4152541;28;20037;-77
2024/02/23 03:52:47;;;;;;;9.68;1.70;;;5.60;99.90;;;4.76;100.00;99108.63;4150718;28;20022;-77
2024/02/23 03:54:49;;;;;;;8.45;1.00;;;5.60;99.90;;;4.77;100.00;99099.81;4152558;28;20030;-77
2024/02/23 03:56:49;;;;;;;4.40;0.88;;;5.60;99.90;;;4.76;100.00;99111.25;4154237;28;20117;-77
2024/02/23 03:58:50;;;;;;;7.85;0.82;;;5.60;99.90;;;4.66;100.00;99084.41;4151069;28;20030;-77
2024/02/23 04:00:52;;;;;;;5.22;1.20;;;5.60;99.90;;;4.76;100.00;99100.78;4167826;28;20029;-77
2024/02/23 04:02:52;;;;;;;8.98;1.65;;;5.60;99.90;;;4.77;100.00;99094.59;4152403;28;20125;-77
2024/02/23 04:04:54;;;;;;;6.32;1.15;;;5.60;99.90;;;4.80;100.00;99090.84;4152362;28;20037;-77
2024/02/23 04:06:54;;;;;;;5.90;1.23;;;5.60;99.90;;;4.81;100.00;99090.66;4164785;28;20491;-77
2024/02/23 04:08:55;;;;;;;3.97;0.80;;;5.60;99.90;;;4.82;100.00;99091.50;4152367;28;20077;-77
2024/02/23 04:10:56;;;;;;;11.50;1.75;;;5.60;99.90;;;4.80;100.00;99088.22;4152243;28;20034;-77
2024/02/23 04:12:58;;;;;;;10.20;1.25;;;5.60;99.90;;;4.76;100.00;99079.06;4152106;28;20393;-77
2024/02/23 04:14:59;;;;;;;14.65;2.67;;;5.60;99.90;;;4.74;100.00;99081.84;4151029;28;20045;-77
2024/02/23 04:16:59;;;;;;;4.55;1.58;;;5.60;99.90;;;4.65;100.00;99071.53;4162639;28;20099;-77
2024/02/23 04:19:00;;;;;;;8.52;2.10;;;5.60;99.90;;;4.66;100.00;99075.78;4150902;28;20085;-77
2024/02/23 04:21:01;;;;;;;4.63;1.38;;;5.60;99.90;;;4.74;100.00;99076.63;4167302;28;20022;-77
2024/02/23 04:23:02;;;;;;;8.38;1.63;;;5.60;99.90;;;4.79;100.00;99070.91;4154381;28;20033;-77
2024/02/23 04:25:04;;;;;;;7.07;1.23;;;5.70;99.90;;;4.82;100.00;99063.56;4167557;28;20108;-77
2024/02/23 04:27:07;;;;;;;9.18;1.42;;;5.70;99.90;;;5.06;100.00;99068.03;4167346;28;20116;-77
2024/02/23 04:29:08;;;;;;;10.77;1.50;;;5.80;99.90;;;5.25;100.00;99080.78;4152209;28;20101;-77
2024/02/23 04:31:10;;;;;;;7.60;1.20;;;6.00;99.90;;;5.55;100.00;99114.09;4149657;28;20487;-76
2024/02/23 04:33:10;;;;;;;6.40;1.70;;;6.20;99.90;;;5.94;100.00;99129.19;4162051;28;20112;-77
2024/02/23 04:35:11;;;;;;;5.60;1.08;;;6.40;99.90;;;5.93;100.00;99114.44;4160829;28;20076;-76
2024/02/23 04:37:12;;;;;;;2.63;0.40;;;6.50;99.90;;;5.92;100.00;99118.88;4167249;28;20100;-77
2024/02/23 04:39:13;;;;;;;1.38;0.50;;;6.60;99.90;;;5.85;100.00;99120.53;4168286;28;20512;-76
2024/02/23 04:41:14;;;;;;;3.13;0.50;;;6.60;99.90;;;5.72;100.00;99099.25;4160146;28;20018;-77
2024/02/23 04:43:15;;;;;;;4.00;0.60;;;6.60;99.90;;;5.73;100.00;99106.13;4166989;28;20112;-76
2024/02/23 04:45:16;;;;;;;2.47;0.28;;;6.60;99.90;;;5.67;100.00;99103.34;4165002;28;20029;-77
2024/02/23 04:47:17;;;;;;;9.05;1.15;;;6.50;99.90;;;5.69;100.00;99109.22;4153952;28;20114;-77
2024/02/23 04:49:17;;;;;;;5.50;0.47;;;6.50;99.90;;;5.59;100.00;99110.19;4152127;28;20041;-76
2024/02/23 04:51:19;;;;;;;2.83;0.40;;;6.50;99.90;;;5.62;100.00;99108.22;4152368;28;20026;-77
2024/02/23 04:53:19;;;;;;;3.65;0.60;;;6.40;99.90;;;5.54;100.00;99102.03;4152093;28;20033;-76
2024/02/23 04:55:20;;;;;;;3.75;0.40;;;6.40;99.90;;;5.59;100.00;99104.16;4152137;28;20022;-77
2024/02/23 04:57:21;;;;;;;3.03;0.68;;;6.40;99.90;;;5.54;100.00;99095.97;4168704;28;20025;-77
2024/02/23 04:59:22;;;;;;;2.03;0.60;;;6.40;99.90;;;5.54;100.00;99085.53;4168147;28;20029;-76
2024/02/23 05:01:23;;;;;;;1.08;0.30;;;6.40;99.90;;;5.51;100.00;99089.28;4168184;28;20033;-76
2024/02/23 05:03:24;;;;;;;1.85;0.40;;;6.30;99.90;;;5.44;100.00;99071.78;4166969;28;20482;-77
2024/02/23 05:05:24;;;;;;;1.83;0.47;;;6.30;99.90;;;5.33;100.00;99080.78;4170922;28;20033;-77
2024/02/23 05:07:25;;;;;;;0.98;0.30;;;6.20;99.90;;;5.26;100.00;99081.59;4164257;28;20038;-77
2024/02/23 05:09:26;;;;;;;3.17;0.57;;;6.10;99.90;;;5.18;100.00;99087.63;4154888;28;20034;-77
2024/02/23 05:11:27;;;;;;;3.08;1.10;;;6.00;99.90;;;5.09;100.00;99075.53;4153526;28;20503;-76
2024/02/23 05:13:28;;;;;;;2.85;1.27;;;6.00;99.90;;;5.07;100.00;99066.22;4154766;28;20462;-76
2024/02/23 05:15:30;;;;;;;2.95;1.27;;;5.90;99.90;;;4.97;100.00;99064.59;4155888;28;20034;-77
2024/02/23 05:17:31;;;;;;;1.50;0.52;;;5.90;99.90;;;4.96;100.00;99052.50;4170100;28;20013;-77
2024/02/23 05:19:31;;;;;;;0.60;0.30;;;5.80;99.90;;;4.92;100.00;99063.44;4171199;28;20036;-76
2024/02/23 05:21:32;;;;;;;0.98;0.60;;;5.80;99.90;;;4.84;100.00;99060.78;4167657;28;20378;-77
2024/02/23 05:23:33;;;;;;;0.28;0.20;;;5.70;99.90;;;4.79;100.00;99052.63;4154772;28;20030;-77
2024/02/23 05:25:35;;;;;;;0.30;0.22;;;5.60;99.90;;;4.74;100.00;99045.28;4157538;28;20040;-77
2024/02/23 05:27:36;;;;;;;2.65;0.35;;;5.60;99.90;;;4.71;100.00;99042.19;4158227;28;20053;-77
2024/02/23 05:29:37;;;;;;;0.75;0.50;;;5.60;99.90;;;4.69;100.00;99036.31;4154529;28;20397;-76
2024/02/23 05:31:52;;;;;;;1.00;0.80;;;5.60;99.90;;;4.69;100.00;99031.88;4153485;28;20034;-77
2024/02/23 05:33:53;;;;;;;1.02;0.60;;;5.50;99.90;;;4.73;100.00;99040.22;4167295;28;20026;-77
2024/02/23 05:35:54;;;;;;;0.40;0.20;;;5.60;99.90;;;4.76;100.00;99042.50;4169376;28;20396;-77
2024/02/23 05:37:55;;;;;;;0.65;0.30;;;5.60;99.90;;;4.65;100.00;99024.53;4154554;28;20391;-77
2024/02/23 05:39:56;;;;;;;4.93;0.50;;;5.50;99.90;;;4.76;100.00;99030.25;4153303;28;20026;-77
2024/02/23 05:41:59;;;;;;;1.75;0.40;;;5.60;99.90;;;4.77;100.00;99028.47;4154478;28;20037;-77
2024/02/23 05:44:00;;;;;;;0.35;0.32;;;5.60;99.90;;;4.73;100.00;99024.53;4153077;28;20652;-77
2024/02/23 05:46:00;;;;;;;0.75;0.20;;;5.60;99.90;;;4.77;100.00;99039.75;4163070;28;20037;-77
2024/02/23 05:48:02;;;;;;;0.45;0.30;;;5.60;99.90;;;4.77;100.00;99031.09;4170645;28;20030;-77
2024/02/23 05:50:04;;;;;;;0.95;0.30;;;5.60;99.90;;;4.73;100.00;99030.59;4170808;28;20029;-77
2024/02/23 05:52:05;;;;;;;1.65;0.35;;;5.60;99.90;;;4.81;100.00;99032.38;4169260;28;20052;-77
2024/02/23 05:54:06;;;;;;;0.50;0.20;;;5.60;99.90;;;4.80;100.00;99036.00;4170705;28;20022;-77
2024/02/23 05:56:07;;;;;;;2.45;0.40;;;5.60;99.90;;;4.84;100.00;99032.06;4170531;28;20033;-76
2024/02/23 05:58:09;;;;;;;2.50;0.30;;;5.60;99.90;;;4.87;100.00;99039.56;4159801;28;20485;-76
2024/02/23 06:00:11;;;;;;;5.05;0.70;;;5.60;99.90;;;4.92;100.00;99043.34;4154198;28;20026;-76
2024/02/23 06:02:11;;;;;;;0.65;0.35;;;5.70;99.90;;;4.91;100.00;99040.91;4169452;28;20139;-76
2024/02/23 06:04:12;;;;;;;0.60;0.40;;;5.70;99.90;;;4.91;100.00;99049.56;4169241;28;20029;-76
2024/02/23 06:06:14;;;;;;;2.25;0.40;;;5.70;99.90;;;4.92;100.00;99042.53;4160397;28;20033;-76
2024/02/23 06:08:14;;;;;;;1.70;0.77;;;5.70;99.90;;;4.95;100.00;99052.66;4156501;28;20050;-76
2024/02/23 06:10:15;;;;;;;0.65;0.30;;;5.70;99.90;;;4.98;100.00;99047.94;4154266;28;20025;-76
2024/02/23 06:12:16;;;;;;;3.67;0.60;;;5.70;99.90;;;5.02;100.00;99044.00;4152715;28;20026;-77
2024/02/23 06:14:17;;;;;;;2.83;0.50;;;5.80;99.90;;;5.04;100.00;99046.47;4168877;28;20033;-76
2024/02/23 06:16:18;;;;;;;3.92;0.65;;;5.80;99.90;;;5.07;100.00;99058.41;4161029;28;20021;-76
2024/02/23 06:18:19;;;;;;;1.55;0.85;;;5.80;99.90;;;5.04;100.00;99056.94;4168879;28;20477;-76
2024/02/23 06:20:20;;;;;;;3.22;0.50;;;5.80;99.90;;;5.07;100.00;99051.38;4169048;28;20040;-77
2024/02/23 06:22:22;;;;;;;6.47;0.50;;;5.80;99.90;;;5.01;100.00;99052.03;4153751;28;20030;-76
2024/02/23 06:24:22;;;;;;;2.55;0.65;;;5.80;99.90;;;4.99;100.00;99052.16;4182389;28;20032;-77
2024/02/23 06:26:23;;;;;;;2.20;0.52;;;5.70;99.90;;;5.00;100.00;99047.75;4168925;28;20064;-77
2024/02/23 06:28:24;;;;;;;2.92;0.60;;;5.70;99.90;;;4.97;100.00;99059.38;4169893;28;20052;-77
2024/02/23 06:30:25;;;;;;;3.97;1.08;;;5.80;99.90;;;4.95;100.00;99052.66;4170081;28;20087;-77
2024/02/23 06:32:26;;;;;;;6.80;0.80;;;5.70;99.90;;;4.99;100.00;99062.63;4168733;28;20088;-77
2024/02/23 06:34:27;;;;;;;3.60;0.68;;;5.80;99.90;;;5.00;100.00;99056.44;4169799;28;20033;-77
2024/02/23 06:36:27;;;;;;;3.28;0.57;;;5.80;99.90;;;5.07;100.00;99061.81;4163891;28;20022;-76
2024/02/23 06:38:28;;;;;;;7.50;2.22;;;5.90;99.90;;;5.11;100.00;99057.88;4153639;28;20022;-77
2024/02/23 06:40:29;;;;;;;5.47;0.88;;;5.90;99.90;;;5.13;100.00;99061.19;4164479;28;20493;-77
2024/02/23 06:42:30;;;;;;;4.75;1.17;;;5.90;99.90;;;5.19;100.00;99064.94;4135858;28;20030;-77
2024/02/23 06:44:31;;;;;;;8.18;1.52;;;5.90;99.90;;;5.29;100.00;99070.81;4153269;28;20026;-77
2024/02/23 06:46:32;;;;;;;4.13;1.20;;;6.00;99.90;;;5.27;100.00;99070.16;4159957;28;20071;-77
2024/02/23 06:48:32;;;;;;;4.60;1.00;;;6.00;99.90;;;5.24;100.00;99060.84;4168317;28;20045;-77
2024/02/23 06:50:33;;;;;;;4.93;1.00;;;6.00;99.90;;;5.24;100.00;99063.47;4153171;28;20501;-77
2024/02/23 06:52:34;;;;;;;3.55;0.80;;;6.00;99.90;;;5.17;100.00;99048.63;4153349;28;20018;-77
2024/02/23 06:54:35;;;;;;;6.50;0.93;;;6.00;99.90;;;5.25;100.00;99066.91;4153271;28;20030;-77
2024/02/23 06:56:36;;;;;;;5.38;0.85;;;6.00;99.90;;;5.25;100.00;99059.88;4161937;28;20481;-77
2024/02/23 06:58:38;;;;;;;3.70;0.95;;;6.00;99.90;;;5.30;100.00;99067.22;4154396;28;20052;-77
2024/02/23 07:00:39;;;;;;;4.68;0.90;;;6.10;99.90;;;5.30;100.00;99051.53;4152015;28;20436;-77
2024/02/23 07:02:40;;;;;;;4.72;0.85;;;6.10;99.90;;;5.35;100.00;99055.28;4168362;28;20025;-77
2024/02/23 07:04:41;;;;;;;9.45;1.20;;;6.10;99.90;;;5.45;100.00;99057.75;4147058;28;20052;-77
2024/02/23 07:06:42;;;;;;;11.27;0.88;;;6.10;99.90;;;5.45;100.00;99061.19;4163407;28;20049;-77
2024/02/23 07:08:44;;;;;;;3.90;1.45;;;6.20;99.90;;;5.50;100.00;99050.22;4152154;28;20022;-77
2024/02/23 07:10:45;;;;;;;4.55;1.30;;;6.20;99.90;;;5.58;100.00;99058.06;4151634;28;20072;-77
2024/02/23 07:12:46;;;;;;;3.42;0.70;;;6.30;99.90;;;5.56;100.00;99060.84;4152722;28;20030;-77
2024/02/23 07:14:48;;;;;;;6.10;0.90;;;6.30;99.90;;;5.53;100.00;99079.47;4151662;28;20029;-77
2024/02/23 07:16:48;;;;;;;4.13;1.08;;;6.20;99.90;;;5.52;100.00;99072.63;4159467;28;20508;-77
2024/02/23 07:18:49;;;;;;;3.78;0.65;;;6.20;99.90;;;5.44;100.00;99058.72;4152925;28;20030;-77
2024/02/23 07:20:50;;;;;;;5.25;0.65;;;6.20;99.90;;;5.41;100.00;99059.88;4135322;28;20030;-77
2024/02/23 07:22:51;;;;;;;3.70;0.85;;;6.20;99.90;;;5.41;100.00;99061.66;4153458;28;20018;-77
2024/02/23 07:24:52;;;;;;;7.22;0.95;;;6.20;99.90;;;5.43;100.00;99067.56;4168016;28;20477;-77
2024/02/23 07:26:53;;;;;;;3.95;0.90;;;6.20;99.90;;;5.41;100.00;99053.81;4161815;28;20482;-77
2024/02/23 07:28:54;;;;;;;2.33;1.00;;;6.20;99.90;;;5.39;100.00;99051.38;4150611;28;20549;-77
2024/02/23 07:30:54;;;;;;;5.25;1.30;;;6.20;99.90;;;5.49;100.00;99040.75;4152584;28;20436;-77
2024/02/23 07:32:55;;;;;;;3.03;1.33;;;6.30;99.90;;;5.56;100.00;99058.22;4153584;28;20030;-77
2024/02/23 07:34:56;;;;;;;2.40;1.02;;;6.30;99.90;;;5.56;100.00;99052.16;4162706;28;20465;-77
2024/02/23 07:36:57;;;;;;;5.07;0.80;;;6.30;99.90;;;5.55;100.00;99053.16;4163436;28;20469;-77
2024/02/23 07:38:58;;;;;;;3.60;0.82;;;6.30;99.90;;;5.49;100.00;99056.44;4169016;28;20021;-77
2024/02/23 07:40:59;;;;;;;2.85;0.77;;;6.30;99.90;;;5.49;100.00;99057.25;4167989;28;20033;-77
2024/02/23 07:43:00;;;;;;;2.67;1.00;;;6.30;99.90;;;5.48;100.00;99055.63;4183830;28;20028;-77
2024/02/23 07:45:04;;;;;;;5.13;0.85;;;6.30;99.90;;;5.53;100.00;99063.78;4167365;28;20040;-77
2024/02/23 07:47:05;;;;;;;2.45;0.70;;;6.30;99.90;;;5.62;100.00;99058.53;4154386;28;20089;-77
2024/02/23 07:49:06;;;;;;;1.77;0.77;;;6.40;99.90;;;5.73;100.00;99064.25;4150946;28;20501;-77
2024/02/23 07:51:07;;;;;;;2.47;0.50;;;6.50;99.90;;;5.84;100.00;99065.69;4151242;28;20034;-77
2024/02/23 07:53:08;;;;;;;1.92;0.60;;;6.60;99.90;;;5.96;100.00;99064.41;4176980;28;20541;-77
2024/02/23 07:55:09;;;;;;;4.20;0.57;;;6.70;99.90;;;6.10;100.00;99061.06;4168847;28;20018;-76
2024/02/23 07:57:10;;;;;;;3.90;0.70;;;6.80;99.90;;;6.24;100.00;99076.09;4153718;28;20056;-76
2024/02/23 07:59:11;;;;;;;0.93;0.80;;;6.90;99.90;;;6.42;100.00;99063.56;4167534;28;20022;-76
2024/02/23 08:01:14;;;;;;;2.63;0.55;;;7.10;99.90;;;6.59;100.00;99078.25;4151282;28;20045;-76
2024/02/23 08:03:15;;;;;;;5.53;0.60;;;7.20;99.90;;;6.79;100.00;99080.44;4151271;28;20026;-76
2024/02/23 08:05:16;;;;;;;5.03;0.70;;;7.40;99.90;;;6.78;100.00;99074.38;4152412;28;20026;-77
2024/02/23 08:07:17;;;;;;;3.38;0.90;;;7.50;99.90;;;6.75;100.00;99073.91;4161025;28;20508;-77
2024/02/23 08:09:18;;;;;;;2.70;0.70;;;7.50;99.90;;;6.73;100.00;99070.63;4151296;28;20116;-77
2024/02/23 08:11:19;;;;;;;3.92;0.60;;;7.50;99.90;;;6.64;100.00;99068.06;4167424;28;20080;-77
2024/02/23 08:13:20;;;;;;;3.13;0.88;;;7.50;99.90;;;6.58;100.00;99060.06;4150828;28;20508;-76
2024/02/23 08:15:20;;;;;;;4.53;0.52;;;7.40;99.90;;;6.52;100.00;99069.44;4167731;28;20017;-77
2024/02/23 08:17:21;;;;;;;2.33;0.40;;;7.40;99.90;;;6.48;100.00;99072.56;4158515;28;20022;-76
2024/02/23 08:19:22;;;;;;;2.80;1.15;;;7.30;99.90;;;6.38;100.00;99070.16;4151202;28;20498;-77
2024/02/23 08:21:23;;;;;;;3.25;0.70;;;7.20;99.90;;;6.30;100.00;99067.53;4152175;28;20087;-76
2024/02/23 08:23:24;;;;;;;1.75;0.40;;;7.10;99.90;;;6.31;100.00;99073.59;4172812;28;20033;-77
2024/02/23 08:25:28;;;;;;;4.50;0.73;;;7.10;99.90;;;6.26;100.00;99071.50;4167308;28;20594;-76
2024/02/23 08:27:29;;;;;;;1.67;1.10;;;7.10;99.90;;;6.31;100.00;99071.81;4156184;28;20033;-76
2024/02/23 08:29:30;;;;;;;5.05;0.50;;;7.10;99.90;;;6.32;100.00;99081.31;4151930;28;20041;-76
2024/02/23 08:31:31;;;;;;;2.85;0.90;;;7.10;99.90;;;6.38;100.00;99085.03;4150984;28;20022;-76
2024/02/23 08:33:32;;;;;;;4.22;0.40;;;7.10;99.90;;;6.41;100.00;99084.72;4152218;28;20030;-76